M Y Suncoco — SY7908 — position and weather

sailwx.info

Track history (hours):
 
Tides and Currents Weather Stations Pressure Air Temp Water Temp Dewpoint Dewpoint Depression Visibility Wind Speed Wind Dir Waves Ship Positions

M Y Suncoco

Last reported at 2014-Jul-23 22:33 UTC. Time now 2014-Aug-23 03:39 UTC.
Position N 37°07' E 026°18'.
Warning: this ship's position is 30 days out of date.

Length 32 m; draft 2.8 m.

Type: Other ship. MMSI: 239112700.

Date/timePositionNaut miles runAvg speedWind from/ knotsBaromVisibWave heightAir tempDewpointWater temp
2014-Jul-23 22:33N 37°07' E 026°18'1111.1
2014-Jul-23 21:33N 37°10' E 026°05'1111.5
2014-Jul-23 20:33N 37°14' E 025°51'2210.9
2014-Jul-23 18:33N 37°22' E 025°26'1111.0
2014-Jul-23 17:33N 37°27' E 025°14'1111.1
2014-Jul-23 16:33N 37°30' E 025°00'1411.2
2014-Jul-23 15:16N 37°30' E 024°42'1011.1
2014-Jul-23 14:20N 37°29' E 024°29'  
2014-Jul-18 09:26N 37°47' E 023°46'1010.9
2014-Jul-18 08:33N 37°41' E 023°37'13 1.7
2014-Jul-18 00:32N 37°31' E 023°26'0 0.0
2014-Jul-17 23:24N 37°31' E 023°26'0 0.0
2014-Jul-17 22:28N 37°31' E 023°26'0 0.0
2014-Jul-17 21:30N 37°31' E 023°26'0 0.0
2014-Jul-17 19:32N 37°31' E 023°26'  
2014-Jul-15 06:30N 37°06' E 024°32'1011.2
2014-Jul-15 05:34N 37°08' E 024°45'1110.9
2014-Jul-15 04:34N 37°08' E 024°59'1111.1
2014-Jul-15 03:33N 37°10' E 025°13'1 1.3
2014-Jul-15 02:32N 37°09' E 025°14'0 0.0
2014-Jul-15 01:34N 37°09' E 025°14'0 0.0
2014-Jul-15 00:33N 37°09' E 025°14'0 0.0
2014-Jul-14 23:34N 37°09' E 025°14'0 0.0
2014-Jul-14 22:34N 37°09' E 025°14'0 0.0
2014-Jul-14 21:34N 37°09' E 025°14'0 0.0
2014-Jul-14 20:33N 37°09' E 025°14'0 0.0
2014-Jul-14 19:33N 37°09' E 025°14'0 0.0
2014-Jul-14 18:33N 37°09' E 025°14'0 0.0
2014-Jul-14 17:34N 37°09' E 025°14'0 0.0
2014-Jul-14 16:33N 37°09' E 025°14'0 0.0
2014-Jul-14 15:33N 37°09' E 025°14'0 0.0
2014-Jul-14 14:33N 37°09' E 025°14'0 0.0
2014-Jul-14 13:34N 37°09' E 025°14'0 0.0
2014-Jul-14 12:33N 37°09' E 025°14'2 1.7
2014-Jul-14 11:33N 37°10' E 025°15'1111.3
2014-Jul-14 10:33N 37°21' E 025°19'4 4.1
2014-Jul-14 09:34N 37°25' E 025°20'0 0.0
2014-Jul-14 08:33N 37°25' E 025°20'0 0.0
2014-Jul-14 07:33N 37°25' E 025°20'0 0.0
2014-Jul-14 06:29N 37°25' E 025°20'0 0.0
2014-Jul-14 05:33N 37°25' E 025°20'0 0.0
2014-Jul-14 04:34N 37°25' E 025°20'0 0.0
2014-Jul-14 03:33N 37°25' E 025°20'0 0.0
2014-Jul-14 02:25N 37°25' E 025°20'0 0.0
2014-Jul-14 01:34N 37°25' E 025°20'0 0.0
2014-Jul-14 00:34N 37°25' E 025°20'0 0.0
2014-Jul-13 23:33N 37°25' E 025°20'0 0.0
2014-Jul-13 22:34N 37°25' E 025°20'  
Track history (hours):
 
Tides and Currents Weather Stations Pressure Air Temp Water Temp Dewpoint Dewpoint Depression Visibility Wind Speed Wind Dir Waves Ship Positions

M Y Suncoco

Last reported at 2014-Jul-23 22:33 UTC. Time now 2014-Aug-23 03:39 UTC.
Position N 37°07' E 026°18'.
Warning: this ship's position is 30 days out of date.

Length 32 m; draft 2.8 m.

Type: Other ship. MMSI: 239112700.

Date/timePositionNaut miles runAvg speedWind from/ knotsBaromVisibWave heightAir tempDewpointWater temp
2014-Jul-23 22:33N 37°07' E 026°18'1111.1
2014-Jul-23 21:33N 37°10' E 026°05'1111.5
2014-Jul-23 20:33N 37°14' E 025°51'2210.9
2014-Jul-23 18:33N 37°22' E 025°26'1111.0
2014-Jul-23 17:33N 37°27' E 025°14'1111.1
2014-Jul-23 16:33N 37°30' E 025°00'1411.2
2014-Jul-23 15:16N 37°30' E 024°42'1011.1
2014-Jul-23 14:20N 37°29' E 024°29'  
2014-Jul-18 09:26N 37°47' E 023°46'1010.9
2014-Jul-18 08:33N 37°41' E 023°37'13 1.7
2014-Jul-18 00:32N 37°31' E 023°26'0 0.0
2014-Jul-17 23:24N 37°31' E 023°26'0 0.0
2014-Jul-17 22:28N 37°31' E 023°26'0 0.0
2014-Jul-17 21:30N 37°31' E 023°26'0 0.0
2014-Jul-17 19:32N 37°31' E 023°26'  
2014-Jul-15 06:30N 37°06' E 024°32'1011.2
2014-Jul-15 05:34N 37°08' E 024°45'1110.9
2014-Jul-15 04:34N 37°08' E 024°59'1111.1
2014-Jul-15 03:33N 37°10' E 025°13'1 1.3
2014-Jul-15 02:32N 37°09' E 025°14'0 0.0
2014-Jul-15 01:34N 37°09' E 025°14'0 0.0
2014-Jul-15 00:33N 37°09' E 025°14'0 0.0
2014-Jul-14 23:34N 37°09' E 025°14'0 0.0
2014-Jul-14 22:34N 37°09' E 025°14'0 0.0
2014-Jul-14 21:34N 37°09' E 025°14'0 0.0
2014-Jul-14 20:33N 37°09' E 025°14'0 0.0
2014-Jul-14 19:33N 37°09' E 025°14'0 0.0
2014-Jul-14 18:33N 37°09' E 025°14'0 0.0
2014-Jul-14 17:34N 37°09' E 025°14'0 0.0
2014-Jul-14 16:33N 37°09' E 025°14'0 0.0
2014-Jul-14 15:33N 37°09' E 025°14'0 0.0
2014-Jul-14 14:33N 37°09' E 025°14'0 0.0
2014-Jul-14 13:34N 37°09' E 025°14'0 0.0
2014-Jul-14 12:33N 37°09' E 025°14'2 1.7
2014-Jul-14 11:33N 37°10' E 025°15'1111.3
2014-Jul-14 10:33N 37°21' E 025°19'4 4.1
2014-Jul-14 09:34N 37°25' E 025°20'0 0.0
2014-Jul-14 08:33N 37°25' E 025°20'0 0.0
2014-Jul-14 07:33N 37°25' E 025°20'0 0.0
2014-Jul-14 06:29N 37°25' E 025°20'0 0.0
2014-Jul-14 05:33N 37°25' E 025°20'0 0.0
2014-Jul-14 04:34N 37°25' E 025°20'0 0.0
2014-Jul-14 03:33N 37°25' E 025°20'0 0.0
2014-Jul-14 02:25N 37°25' E 025°20'0 0.0
2014-Jul-14 01:34N 37°25' E 025°20'0 0.0
2014-Jul-14 00:34N 37°25' E 025°20'0 0.0
2014-Jul-13 23:33N 37°25' E 025°20'0 0.0
2014-Jul-13 22:34N 37°25' E 025°20'  

Dump ship's entire track history